createdAt,value
2018-11-10T00:00:07.692Z,99368.15
2018-11-10T00:02:40.401Z,99359.58
2018-11-10T00:05:18.899Z,99357.30
2018-11-10T00:08:01.325Z,99355.31
2018-11-10T00:10:40.766Z,99354.78
2018-11-10T00:13:16.843Z,99352.47
2018-11-10T00:15:57.453Z,99346.39
2018-11-10T00:18:41.851Z,99341.97
2018-11-10T00:21:18.462Z,99339.05
2018-11-10T00:23:49.483Z,99306.08
2018-11-10T00:26:29.652Z,99327.86
2018-11-10T00:29:17.294Z,99334.23
2018-11-10T00:31:50.801Z,99331.44
2018-11-10T00:34:32.299Z,99335.53
2018-11-10T00:37:10.887Z,99325.19
2018-11-10T00:39:46.686Z,99318.34
2018-11-10T00:42:24.698Z,99321.67
2018-11-10T00:45:02.809Z,99310.45
2018-11-10T00:47:36.365Z,99315.20
2018-11-10T00:50:10.013Z,99324.13
2018-11-10T00:52:44.604Z,99321.89
2018-11-10T00:55:18.972Z,99312.52
2018-11-10T00:57:55.646Z,99308.97
2018-11-10T01:00:35.673Z,99312.63
2018-11-10T01:03:10.223Z,99318.45
2018-11-10T01:05:47.599Z,99278.75
2018-11-10T01:08:23.189Z,99315.09
2018-11-10T01:11:00.745Z,99290.29
2018-11-10T01:13:38.068Z,99315.88
2018-11-10T01:16:11.208Z,99311.18
2018-11-10T01:18:50.165Z,99304.91
2018-11-10T01:21:30.088Z,99303.39
2018-11-10T01:24:12.544Z,99305.57
2018-11-10T01:29:29.999Z,99306.64
2018-11-10T01:32:08.929Z,99296.05
2018-11-10T01:34:41.036Z,99294.05
2018-11-10T01:37:17.308Z,99300.46
2018-11-10T01:39:50.747Z,99302.82
2018-11-10T01:42:24.739Z,99301.27
2018-11-10T01:44:57.436Z,99293.55
2018-11-10T01:47:33.136Z,99294.97
2018-11-10T01:50:11.559Z,99285.81
2018-11-10T01:53:13.626Z,99270.98
2018-11-10T01:55:46.217Z,99272.78
2018-11-10T01:58:26.617Z,99267.98
2018-11-10T02:00:59.057Z,99267.58
2018-11-10T02:03:31.856Z,99262.19
2018-11-10T02:06:05.864Z,99252.70
2018-11-10T02:08:37.490Z,99250.68
2018-11-10T02:11:10.833Z,99255.13
2018-11-10T02:13:49.131Z,99258.61
2018-11-10T02:16:30.253Z,99141.94
2018-11-10T02:19:02.695Z,99255.54
2018-11-10T02:21:35.372Z,99254.92
2018-11-10T02:24:13.585Z,99251.04
2018-11-10T02:26:50.164Z,99239.68
2018-11-10T02:29:29.180Z,99226.40
2018-11-10T02:32:03.452Z,99238.36
2018-11-10T02:34:35.824Z,99243.61
2018-11-10T02:37:08.260Z,99224.23
2018-11-10T02:39:45.474Z,99235.98
2018-11-10T02:42:28.775Z,99227.16
2018-11-10T02:45:03.273Z,99231.46
2018-11-10T02:47:39.685Z,99228.48
2018-11-10T02:50:22.368Z,99233.64
2018-11-10T02:52:57.610Z,99220.86
2018-11-10T02:55:29.913Z,99220.25
2018-11-10T02:58:04.269Z,99215.63
2018-11-10T03:00:40.274Z,99211.59
2018-11-10T03:03:16.098Z,99207.89
2018-11-10T03:05:51.571Z,99210.16
2018-11-10T03:08:24.525Z,99204.29
2018-11-10T03:10:59.785Z,99207.48
2018-11-10T03:13:34.527Z,99203.86
2018-11-10T03:16:07.986Z,99205.42
2018-11-10T03:18:44.084Z,99202.94
2018-11-10T03:21:27.691Z,99201.08
2018-11-10T03:24:00.720Z,99203.88
2018-11-10T03:26:32.183Z,99191.48
2018-11-10T03:29:05.448Z,99188.09
2018-11-10T03:31:42.101Z,99139.52
2018-11-10T03:34:13.361Z,99190.66
2018-11-10T03:36:44.696Z,99184.18
2018-11-10T03:39:21.696Z,99189.83
2018-11-10T03:41:58.573Z,99176.01
2018-11-10T03:44:36.111Z,99176.52
2018-11-10T03:47:10.879Z,99172.81
2018-11-10T03:49:46.769Z,99184.78
2018-11-10T03:52:17.348Z,99182.61
2018-11-10T03:54:49.141Z,99180.77
2018-11-10T03:57:28.561Z,99187.05
2018-11-10T04:00:04.840Z,99174.27
2018-11-10T04:02:38.343Z,99172.09
2018-11-10T04:05:15.109Z,99176.31
2018-11-10T04:07:48.683Z,99170.03
2018-11-10T04:10:30.735Z,99180.42
2018-11-10T04:13:08.128Z,99176.72
2018-11-10T04:15:47.032Z,99187.13
2018-11-10T04:18:21.104Z,99186.81
2018-11-10T04:20:54.764Z,99191.60
2018-11-10T04:23:27.140Z,99170.37
2018-11-10T04:25:59.061Z,99163.91
2018-11-10T04:28:32.439Z,99158.05
2018-11-10T04:31:09.948Z,99171.55
2018-11-10T04:33:43.261Z,99188.92
2018-11-10T04:36:19.526Z,99200.66
2018-11-10T04:38:54.703Z,99126.39
2018-11-10T04:41:28.320Z,99208.84
2018-11-10T04:44:05.555Z,99212.22
2018-11-10T04:46:38.361Z,99221.34
2018-11-10T04:49:17.453Z,99202.63
2018-11-10T04:51:50.199Z,99213.09
2018-11-10T04:54:28.769Z,99214.13
2018-11-10T04:57:03.925Z,99200.77
2018-11-10T04:59:35.955Z,99184.06
2018-11-10T05:02:10.632Z,99168.41
2018-11-10T05:04:43.944Z,99167.39
2018-11-10T05:07:18.949Z,99172.04
2018-11-10T05:09:54.676Z,99162.80
2018-11-10T05:12:28.503Z,99158.95
2018-11-10T05:15:12.350Z,99163.33
2018-11-10T05:17:46.599Z,99169.84
2018-11-10T05:20:22.756Z,99149.13
2018-11-10T05:22:57.920Z,99149.63
2018-11-10T05:25:31.926Z,99147.20
2018-11-10T05:28:08.507Z,99140.00
2018-11-10T05:30:45.299Z,99107.24
2018-11-10T05:33:18.293Z,99141.44
2018-11-10T05:35:51.433Z,99134.97
2018-11-10T05:38:26.134Z,99143.34
2018-11-10T05:40:58.193Z,99137.80
2018-11-10T05:43:31.209Z,99064.68
2018-11-10T05:46:10.440Z,99185.27
2018-11-10T05:48:44.678Z,99184.66
2018-11-10T05:51:17.883Z,99178.03
2018-11-10T05:53:51.117Z,99200.91
2018-11-10T05:56:28.127Z,99205.42
2018-11-10T05:59:01.625Z,99193.06
2018-11-10T06:01:36.769Z,99183.79
2018-11-10T06:04:11.359Z,99171.11
2018-11-10T06:06:43.948Z,99182.02
2018-11-10T06:09:18.608Z,99169.26
2018-11-10T06:11:55.110Z,99149.38
2018-11-10T06:14:27.921Z,99164.75
2018-11-10T06:17:02.769Z,99167.45
2018-11-10T06:19:45.777Z,99161.39
2018-11-10T06:22:18.253Z,99163.75
2018-11-10T06:24:52.760Z,99155.52
2018-11-10T06:27:26.985Z,99159.95
2018-11-10T06:30:03.904Z,99166.23
2018-11-10T06:32:41.527Z,99165.44
2018-11-10T06:35:20.441Z,99165.41
2018-11-10T06:37:55.181Z,99159.94
2018-11-10T06:40:29.457Z,99148.61
2018-11-10T06:43:07.399Z,99137.99
2018-11-10T06:45:44.226Z,99130.28
2018-11-10T06:48:15.981Z,99134.91
2018-11-10T06:50:53.424Z,99056.93
2018-11-10T06:53:35.514Z,99145.70
2018-11-10T06:56:11.764Z,99145.84
2018-11-10T06:58:48.208Z,99171.69
2018-11-10T07:01:26.513Z,99177.89
2018-11-10T07:04:01.100Z,99169.33
2018-11-10T07:06:35.316Z,99169.72
2018-11-10T07:09:09.268Z,99154.70
2018-11-10T07:11:48.742Z,99160.97
2018-11-10T07:14:21.652Z,99161.29
2018-11-10T07:16:58.886Z,99165.22
2018-11-10T07:19:32.235Z,99156.88
2018-11-10T07:22:12.431Z,99161.60
2018-11-10T07:24:56.860Z,99166.75
2018-11-10T07:27:31.838Z,99156.13
2018-11-10T07:30:07.438Z,99159.22
2018-11-10T07:32:55.478Z,99159.62
2018-11-10T07:35:29.390Z,99141.55
2018-11-10T07:38:12.128Z,99138.64
2018-11-10T07:40:56.206Z,99153.81
2018-11-10T07:43:30.065Z,99147.15
2018-11-10T07:46:05.642Z,99148.77
2018-11-10T07:48:42.636Z,99163.00
2018-11-10T07:51:20.152Z,99159.91
2018-11-10T07:53:56.080Z,99161.66
2018-11-10T07:56:31.559Z,99158.95
2018-11-10T07:59:05.895Z,99154.78
2018-11-10T08:01:47.457Z,99146.20
2018-11-10T08:04:29.340Z,99143.95
2018-11-10T08:07:05.454Z,99133.88
2018-11-10T08:09:48.573Z,99149.42
2018-11-10T08:12:23.370Z,99140.48
2018-11-10T08:14:57.679Z,99149.80
2018-11-10T08:17:29.482Z,99133.81
2018-11-10T08:20:04.720Z,99143.68
2018-11-10T08:22:44.602Z,99154.13
2018-11-10T08:25:22.179Z,99152.01
2018-11-10T08:27:55.316Z,99157.14
2018-11-10T08:30:33.252Z,99154.75
2018-11-10T08:33:16.120Z,99151.06
2018-11-10T08:35:54.081Z,99141.38
2018-11-10T08:38:28.777Z,99157.92
2018-11-10T08:41:05.786Z,99142.30
2018-11-10T08:43:43.290Z,99152.01
2018-11-10T08:46:21.139Z,99147.34
2018-11-10T08:49:01.683Z,99142.66
2018-11-10T08:51:42.827Z,99123.84
2018-11-10T08:54:16.661Z,99121.46
2018-11-10T08:56:52.268Z,99126.83
2018-11-10T08:59:28.509Z,99123.00
2018-11-10T09:02:02.043Z,99130.72
2018-11-10T09:04:35.419Z,99140.74
2018-11-10T09:07:08.320Z,99129.25
2018-11-10T09:09:42.828Z,99134.50
2018-11-10T09:12:19.702Z,99139.21
2018-11-10T09:14:58.661Z,99141.47
2018-11-10T09:17:36.420Z,99138.06
2018-11-10T09:20:18.727Z,99131.86
2018-11-10T09:22:51.493Z,99136.33
2018-11-10T09:25:27.569Z,99143.33
2018-11-10T09:28:07.141Z,99121.26
2018-11-10T09:31:02.630Z,99132.61
2018-11-10T09:36:42.223Z,99133.88
2018-11-10T09:42:05.477Z,99145.29
2018-11-10T09:44:43.057Z,99141.28
2018-11-10T09:47:17.605Z,99138.15
2018-11-10T09:49:57.781Z,99140.59
2018-11-10T09:52:32.515Z,99146.53
2018-11-10T09:55:04.453Z,99141.05
2018-11-10T09:57:43.707Z,99130.38
2018-11-10T10:00:25.284Z,99141.29
2018-11-10T10:03:01.801Z,99139.17
2018-11-10T10:05:41.755Z,99138.11
2018-11-10T10:08:14.244Z,99137.38
2018-11-10T10:10:47.304Z,99142.25
2018-11-10T10:13:21.084Z,99127.78
2018-11-10T10:18:34.485Z,99130.93
2018-11-10T10:21:15.777Z,99127.59
2018-11-10T10:23:49.124Z,99133.36
2018-11-10T10:26:25.833Z,99124.59
2018-11-10T10:28:58.213Z,99130.07
2018-11-10T10:31:36.596Z,99120.70
2018-11-10T10:34:20.275Z,99107.46
2018-11-10T10:36:54.300Z,99108.20
2018-11-10T10:39:30.065Z,99121.17
2018-11-10T10:42:05.321Z,99116.17
2018-11-10T10:47:31.396Z,99106.59
2018-11-10T10:50:18.475Z,99107.80
2018-11-10T10:52:55.418Z,99103.45
2018-11-10T10:55:27.629Z,99100.23
2018-11-10T10:57:57.283Z,99101.97
2018-11-10T11:00:36.753Z,99100.75
2018-11-10T11:03:13.580Z,99091.63
2018-11-10T11:05:55.256Z,99090.81
2018-11-10T11:08:28.925Z,99093.36
2018-11-10T11:11:07.428Z,99094.08
2018-11-10T11:13:45.258Z,99091.19
2018-11-10T11:16:20.024Z,99081.83
2018-11-10T11:18:55.284Z,99078.66
2018-11-10T11:21:31.839Z,99083.97
2018-11-10T11:24:05.721Z,99081.52
2018-11-10T11:26:42.318Z,99081.47
2018-11-10T11:31:55.132Z,99072.34
2018-11-10T11:34:31.197Z,99068.55
2018-11-10T11:37:04.431Z,99078.27
2018-11-10T11:39:39.884Z,99075.09
2018-11-10T11:42:19.417Z,99081.59
2018-11-10T11:44:53.376Z,99083.41
2018-11-10T11:47:29.217Z,99084.50
2018-11-10T11:50:00.695Z,99088.21
2018-11-10T11:52:35.740Z,99087.61
2018-11-10T11:55:18.272Z,99079.67
2018-11-10T11:57:55.073Z,99077.77
2018-11-10T12:00:30.290Z,99063.34
2018-11-10T12:03:03.702Z,99068.41
2018-11-10T12:05:38.235Z,99054.90
2018-11-10T12:10:48.277Z,99062.72
2018-11-10T12:13:23.317Z,99056.63
2018-11-10T12:15:56.738Z,99053.41
2018-11-10T12:18:29.288Z,99044.33
2018-11-10T12:21:08.710Z,99038.27
2018-11-10T12:23:46.634Z,99022.35
2018-11-10T12:26:21.875Z,99043.86
2018-11-10T12:28:58.346Z,99039.07
2018-11-10T12:31:36.355Z,99039.63
2018-11-10T12:34:15.228Z,99043.64
2018-11-10T12:36:55.360Z,99048.27
2018-11-10T12:39:31.220Z,99033.58
2018-11-10T12:42:03.288Z,99019.30
2018-11-10T12:44:43.600Z,99029.20
2018-11-10T12:47:19.361Z,99022.45
2018-11-10T12:49:55.235Z,99026.58
2018-11-10T12:52:32.533Z,99024.23
2018-11-10T12:55:05.608Z,99014.22
2018-11-10T12:57:37.800Z,99009.63
2018-11-10T13:00:13.339Z,99003.59
2018-11-10T13:02:48.380Z,99016.09
2018-11-10T13:05:24.417Z,99004.73
2018-11-10T13:08:00.213Z,99005.58
2018-11-10T13:10:36.281Z,99002.37
2018-11-10T13:13:19.930Z,99002.13
2018-11-10T13:15:57.158Z,99000.50
2018-11-10T13:21:42.532Z,98990.27
2018-11-10T13:24:18.067Z,98983.77
2018-11-10T13:26:56.259Z,98994.92
2018-11-10T13:29:38.269Z,98987.22
2018-11-10T13:32:14.523Z,98986.38
2018-11-10T13:34:53.807Z,98984.28
2018-11-10T13:37:36.484Z,98988.88
2018-11-10T13:40:16.372Z,98987.74
2018-11-10T13:42:50.713Z,98991.48
2018-11-10T13:45:25.450Z,98987.37
2018-11-10T13:47:59.304Z,98982.92
2018-11-10T13:50:33.780Z,98992.88
2018-11-10T13:56:04.833Z,98989.48
2018-11-10T13:59:14.545Z,98986.30
2018-11-10T14:01:46.469Z,98978.41
2018-11-10T14:04:26.224Z,98975.55
2018-11-10T14:07:04.276Z,98978.64
2018-11-10T14:09:38.236Z,98979.28
2018-11-10T14:12:14.966Z,98967.61
2018-11-10T14:15:02.637Z,98971.97
2018-11-10T14:17:39.823Z,98891.76
2018-11-10T14:20:20.121Z,98981.66
2018-11-10T14:22:58.361Z,98987.88
2018-11-10T14:25:32.999Z,98983.66
2018-11-10T14:28:09.230Z,98984.48
2018-11-10T14:33:28.336Z,98990.75
2018-11-10T14:36:03.731Z,98984.72
2018-11-10T14:38:42.361Z,98983.50
2018-11-10T14:41:28.295Z,98980.43
2018-11-10T14:44:03.133Z,98982.53
2018-11-10T14:46:41.175Z,98991.42
2018-11-10T14:49:15.749Z,98968.35
2018-11-10T14:51:49.638Z,98987.59
2018-11-10T14:54:27.534Z,98988.23
2018-11-10T14:57:03.288Z,98989.38
2018-11-10T14:59:41.695Z,98991.52
2018-11-10T15:02:16.376Z,98991.05
2018-11-10T15:04:50.792Z,98993.13
2018-11-10T15:07:25.189Z,99005.56
2018-11-10T15:09:56.434Z,99000.00
2018-11-10T15:12:33.513Z,98998.25
2018-11-10T15:15:06.529Z,99003.63
2018-11-10T15:17:49.452Z,98935.88
2018-11-10T15:20:23.266Z,99003.42
2018-11-10T15:22:59.322Z,99012.09
2018-11-10T15:25:41.130Z,99008.00
2018-11-10T15:32:59.888Z,99013.66
2018-11-10T15:35:35.898Z,99005.64
2018-11-10T15:38:17.406Z,99004.47
2018-11-10T15:40:49.633Z,99012.71
2018-11-10T15:43:46.718Z,99010.69
2018-11-10T15:46:22.833Z,99010.95
2018-11-10T15:49:01.015Z,99017.77
2018-11-10T15:51:40.677Z,98998.41
2018-11-10T15:54:15.756Z,99011.14
2018-11-10T15:56:54.276Z,99006.23
2018-11-10T15:59:28.565Z,98996.89
2018-11-10T16:02:10.690Z,99014.11
2018-11-10T16:04:46.297Z,99013.95
2018-11-10T16:07:21.379Z,99008.52
2018-11-10T16:09:59.995Z,99008.92
2018-11-10T16:12:35.885Z,99014.89
2018-11-10T16:15:18.345Z,99009.66
2018-11-10T16:17:56.948Z,99004.74
2018-11-10T16:20:36.171Z,98993.22
2018-11-10T16:23:13.382Z,98995.02
2018-11-10T16:25:52.471Z,99002.86
2018-11-10T16:28:29.172Z,98995.84
2018-11-10T16:31:03.415Z,98991.45
2018-11-10T16:33:42.286Z,98914.97
2018-11-10T16:36:22.327Z,98981.22
2018-11-10T16:39:03.416Z,98976.56
2018-11-10T16:41:42.635Z,98972.11
2018-11-10T16:44:23.260Z,98974.03
2018-11-10T16:46:56.590Z,98984.92
2018-11-10T16:49:30.400Z,98985.58
2018-11-10T16:52:04.583Z,98980.00
2018-11-10T16:54:42.134Z,98979.33
2018-11-10T16:57:13.516Z,98980.24
2018-11-10T16:59:54.525Z,98979.01
2018-11-10T17:02:29.345Z,98976.70
2018-11-10T17:05:09.197Z,98873.92
2018-11-10T17:07:42.530Z,98957.34
2018-11-10T17:10:22.585Z,98892.42
2018-11-10T17:12:58.939Z,98968.94
2018-11-10T17:18:13.001Z,98972.72
2018-11-10T17:20:51.417Z,98970.05
2018-11-10T17:23:23.893Z,98970.14
2018-11-10T17:25:59.198Z,98960.84
2018-11-10T17:28:38.105Z,98964.89
2018-11-10T17:31:14.249Z,98965.42
2018-11-10T17:33:48.533Z,98967.46
2018-11-10T17:36:22.054Z,98950.53
2018-11-10T17:38:52.472Z,98955.53
2018-11-10T17:41:23.561Z,98954.92
2018-11-10T17:43:53.022Z,98948.73
2018-11-10T17:46:28.527Z,98953.16
2018-11-10T17:49:03.498Z,98962.25
2018-11-10T17:51:47.656Z,98953.34
2018-11-10T17:54:28.127Z,98937.74
2018-11-10T17:57:06.884Z,98959.17
2018-11-10T17:59:41.781Z,98954.90
2018-11-10T18:02:22.162Z,98950.27
2018-11-10T18:04:59.372Z,98957.37
2018-11-10T18:07:39.389Z,98956.63
2018-11-10T18:10:18.525Z,98957.44
2018-11-10T18:12:53.757Z,98966.22
2018-11-10T18:15:29.642Z,98968.59
2018-11-10T18:18:05.476Z,98971.66
2018-11-10T18:20:43.645Z,98967.89
2018-11-10T18:23:25.153Z,98965.75
2018-11-10T18:25:57.471Z,98966.80
2018-11-10T18:28:36.300Z,98973.58
2018-11-10T18:31:09.787Z,98863.66
2018-11-10T18:33:42.556Z,98962.66
2018-11-10T18:36:15.273Z,98967.45
2018-11-10T18:38:57.536Z,98962.02
2018-11-10T18:41:40.417Z,98951.82
2018-11-10T18:44:19.971Z,98952.15
2018-11-10T18:47:00.595Z,98961.72
2018-11-10T18:52:14.591Z,98873.20
2018-11-10T18:54:53.095Z,98943.22
2018-11-10T18:57:31.536Z,98971.77
2018-11-10T19:00:05.263Z,98967.85
2018-11-10T19:02:38.673Z,98976.44
2018-11-10T19:05:16.754Z,98971.65
2018-11-10T19:07:55.253Z,98973.20
2018-11-10T19:10:33.268Z,98968.72
2018-11-10T19:13:11.210Z,98965.58
2018-11-10T19:15:51.221Z,98967.77
2018-11-10T19:18:25.365Z,98963.79
2018-11-10T19:21:03.949Z,98969.61
2018-11-10T19:23:39.706Z,98966.79
2018-11-10T19:26:13.597Z,98965.86
2018-11-10T19:28:46.651Z,98965.59
2018-11-10T19:31:20.846Z,98881.94
2018-11-10T19:33:52.776Z,98974.69
2018-11-10T19:36:22.440Z,98982.58
2018-11-10T19:38:52.497Z,98977.43
2018-11-10T19:41:24.821Z,98984.88
2018-11-10T19:43:58.552Z,98991.85
2018-11-10T19:46:33.512Z,98997.14
2018-11-10T19:49:15.016Z,99003.22
2018-11-10T19:51:50.500Z,99005.54
2018-11-10T19:54:27.149Z,99002.33
2018-11-10T19:59:45.540Z,99008.11
2018-11-10T20:02:22.043Z,98990.56
2018-11-10T20:04:58.773Z,98995.14
2018-11-10T20:07:38.189Z,98909.47
2018-11-10T20:10:23.688Z,98999.77
2018-11-10T20:13:00.076Z,98996.19
2018-11-10T20:15:35.270Z,98991.67
2018-11-10T20:18:08.483Z,98990.57
2018-11-10T20:20:43.904Z,98993.13
2018-11-10T20:23:18.801Z,98991.67
2018-11-10T20:25:54.408Z,98993.54
2018-11-10T20:28:32.818Z,98993.48
2018-11-10T20:31:10.004Z,99001.34
2018-11-10T20:33:45.156Z,99001.44
2018-11-10T20:36:22.488Z,98998.00
2018-11-10T20:39:02.751Z,99005.92
2018-11-10T20:41:39.417Z,99005.63
2018-11-10T20:44:13.988Z,99010.44
2018-11-10T20:46:48.184Z,99015.92
2018-11-10T20:49:25.403Z,98978.34
2018-11-10T20:54:47.566Z,99001.72
2018-11-10T20:57:21.751Z,99005.97
2018-11-10T21:00:00.369Z,98919.22
2018-11-10T21:02:37.212Z,99003.01
2018-11-10T21:05:12.358Z,99004.57
2018-11-10T21:08:35.274Z,98982.99
2018-11-10T21:11:16.555Z,99001.11
2018-11-10T21:13:53.688Z,98989.27
2018-11-10T21:16:32.593Z,98997.97
2018-11-10T21:19:09.447Z,99001.45
2018-11-10T21:21:44.873Z,98997.03
2018-11-10T21:24:23.129Z,98995.20
2018-11-10T21:27:00.048Z,99012.83
2018-11-10T21:29:35.489Z,99010.56
2018-11-10T21:32:13.425Z,99019.98
2018-11-10T21:34:48.680Z,99005.17
2018-11-10T21:37:29.228Z,98989.72
2018-11-10T21:40:05.361Z,98972.73
2018-11-10T21:42:45.611Z,98989.30
2018-11-10T21:45:25.189Z,98981.59
2018-11-10T21:48:03.604Z,98981.34
2018-11-10T21:53:20.680Z,99000.13
2018-11-10T21:56:02.590Z,99010.95
2018-11-10T21:58:42.900Z,98990.05
2018-11-10T22:01:23.217Z,98989.45
2018-11-10T22:03:59.221Z,98999.41
2018-11-10T22:06:39.925Z,99002.59
2018-11-10T22:09:18.826Z,99001.09
2018-11-10T22:11:54.784Z,98995.97
2018-11-10T22:14:31.481Z,98993.44
2018-11-10T22:17:07.316Z,98999.95
2018-11-10T22:19:48.840Z,99004.33
2018-11-10T22:22:30.955Z,98999.95
2018-11-10T22:25:07.731Z,98996.70
2018-11-10T22:27:44.326Z,98999.81
2018-11-10T22:30:19.242Z,99001.30
2018-11-10T22:32:55.264Z,98990.20
2018-11-10T22:35:36.158Z,99001.30
2018-11-10T22:38:13.302Z,99002.81
2018-11-10T22:40:47.211Z,98993.80
2018-11-10T22:43:26.559Z,99004.16
2018-11-10T22:48:45.752Z,99000.47
2018-11-10T22:51:22.660Z,99006.70
2018-11-10T22:53:58.672Z,99007.00
2018-11-10T22:56:33.013Z,99010.27
2018-11-10T22:59:14.317Z,99015.41
2018-11-10T23:01:49.145Z,99000.41
2018-11-10T23:04:29.931Z,99020.59
2018-11-10T23:07:05.170Z,99019.86
2018-11-10T23:09:43.804Z,99019.41
2018-11-10T23:12:20.388Z,99022.21
2018-11-10T23:14:56.133Z,99023.67
2018-11-10T23:17:30.918Z,99031.13
2018-11-10T23:20:12.459Z,99048.13
2018-11-10T23:22:47.877Z,99053.79
2018-11-10T23:25:25.854Z,99054.44
2018-11-10T23:28:03.677Z,99049.38
2018-11-10T23:30:38.271Z,99050.30
2018-11-10T23:33:12.876Z,99028.61
2018-11-10T23:35:46.481Z,99060.98
2018-11-10T23:38:21.334Z,99062.13
2018-11-10T23:40:56.817Z,99055.88
2018-11-10T23:43:30.393Z,99062.59
2018-11-10T23:46:05.810Z,99069.55
2018-11-10T23:48:40.554Z,99072.83
2018-11-10T23:51:18.939Z,99085.30
2018-11-10T23:53:52.408Z,99084.80
2018-11-10T23:56:25.920Z,99076.56
2018-11-10T23:58:59.649Z,99075.02
